Time,TemperatureF,DewpointF,PressureIn,WindDirection,WindDirectionDegrees,WindSpeedMPH,WindSpeedGustMPH,Humidity,HourlyPrecipIn,Conditions,Clouds,dailyrainin,SoftwareType,DateUTC
2013-01-10 00:03:00,34.0,27.9,29.74,NW,315,2.5,2.5,78,0.00,,---,0.00,VWS V14.01,2013-01-10 08:03:00,
2013-01-10 00:08:00,33.8,27.7,29.74,South,180,1.3,1.3,78,0.00,,---,0.00,VWS V14.01,2013-01-10 08:08:00,
2013-01-10 00:14:00,33.8,27.7,29.74,SW,225,2.0,2.0,78,0.00,,---,0.00,VWS V14.01,2013-01-10 08:14:00,
2013-01-10 00:19:00,33.8,27.7,29.74,WSW,248,2.2,2.2,78,0.00,,---,0.00,VWS V14.01,2013-01-10 08:19:00,
2013-01-10 00:24:00,33.8,27.7,29.74,SSW,202,2.9,2.9,78,0.00,,---,0.00,VWS V14.01,2013-01-10 08:24:00,
2013-01-10 00:29:00,33.8,27.7,29.74,SSW,202,3.4,3.4,78,0.00,,---,0.00,VWS V14.01,2013-01-10 08:29:00,
2013-01-10 00:34:00,33.8,27.7,29.74,ESE,112,2.9,2.9,78,0.00,,---,0.00,VWS V14.01,2013-01-10 08:34:00,
2013-01-10 00:39:00,33.8,27.4,29.74,WSW,248,3.4,3.4,77,0.00,,---,0.00,VWS V14.01,2013-01-10 08:39:00,
2013-01-10 00:44:00,33.6,27.2,29.74,SSW,202,3.6,3.6,77,0.00,,---,0.00,VWS V14.01,2013-01-10 08:44:00,
2013-01-10 00:49:00,33.6,27.2,29.74,West,270,3.6,3.6,77,0.00,,---,0.00,VWS V14.01,2013-01-10 08:49:00,
2013-01-10 00:54:00,33.4,26.7,29.74,SSE,158,0.0,0.0,76,0.00,,---,0.00,VWS V14.01,2013-01-10 08:54:00,
2013-01-10 00:59:00,33.4,26.7,29.74,SW,225,2.0,2.0,76,0.00,,---,0.00,VWS V14.01,2013-01-10 08:59:00,
2013-01-10 01:04:00,33.3,26.5,29.74,SW,225,3.1,3.1,76,0.00,,---,0.00,VWS V14.01,2013-01-10 09:04:00,
2013-01-10 01:09:00,33.3,26.5,29.74,WSW,248,2.2,2.2,76,0.00,,---,0.00,VWS V14.01,2013-01-10 09:09:00,
2013-01-10 01:14:00,33.3,26.8,29.74,ESE,112,4.0,4.0,77,0.00,,---,0.00,VWS V14.01,2013-01-10 09:14:00,
2013-01-10 01:20:00,33.1,26.7,29.74,South,180,1.1,1.1,77,0.00,,---,0.00,VWS V14.01,2013-01-10 09:20:00,
2013-01-10 01:25:00,33.1,26.7,29.74,South,180,2.0,2.0,77,0.00,,---,0.00,VWS V14.01,2013-01-10 09:25:00,
2013-01-10 01:30:00,33.1,26.4,29.74,SSW,202,2.0,2.0,76,0.00,,---,0.00,VWS V14.01,2013-01-10 09:30:00,
2013-01-10 01:35:00,32.9,26.2,29.76,South,180,4.7,4.7,76,0.00,,---,0.00,VWS V14.01,2013-01-10 09:35:00,
2013-01-10 01:40:00,32.9,26.2,29.76,WSW,248,0.9,0.9,76,0.00,,---,0.00,VWS V14.01,2013-01-10 09:40:00,
2013-01-10 01:45:00,32.9,26.2,29.76,SSW,202,1.6,1.6,76,0.00,,---,0.00,VWS V14.01,2013-01-10 09:45:00,
2013-01-10 01:50:00,32.9,26.2,29.76,ESE,112,3.8,3.8,76,0.00,,---,0.00,VWS V14.01,2013-01-10 09:50:00,
2013-01-10 01:55:00,32.9,26.2,29.76,South,180,8.7,8.7,76,0.00,,---,0.00,VWS V14.01,2013-01-10 09:55:00,
2013-01-10 02:00:00,32.9,26.2,29.76,SW,225,6.0,6.0,76,0.00,,---,0.00,VWS V14.01,2013-01-10 10:00:00,
2013-01-10 02:05:00,32.7,25.7,29.76,NNE,22,1.6,1.6,75,0.00,,---,0.00,VWS V14.01,2013-01-10 10:05:00,
2013-01-10 02:10:00,32.7,25.7,29.76,SSE,158,2.5,2.5,75,0.00,,---,0.00,VWS V14.01,2013-01-10 10:10:00,
2013-01-10 02:16:00,32.5,25.5,29.76,ENE,68,0.0,0.0,75,0.00,,---,0.00,VWS V14.01,2013-01-10 10:16:00,
2013-01-10 02:21:00,32.4,25.3,29.79,ENE,68,1.6,1.6,75,0.00,,---,0.00,VWS V14.01,2013-01-10 10:21:00,
2013-01-10 02:26:00,32.2,25.2,29.79,NNE,22,0.0,0.0,75,0.00,,---,0.00,VWS V14.01,2013-01-10 10:26:00,
2013-01-10 02:31:00,32.0,25.0,29.79,NE,45,2.0,2.0,75,0.00,,---,0.00,VWS V14.01,2013-01-10 10:31:00,
2013-01-10 02:36:00,31.8,24.8,29.76,NNE,22,0.0,0.0,75,0.00,,---,0.00,VWS V14.01,2013-01-10 10:36:00,
2013-01-10 02:41:00,32.0,25.3,29.76,ESE,112,0.0,0.0,76,0.00,,---,0.00,VWS V14.01,2013-01-10 10:41:00,
2013-01-10 02:46:00,32.0,25.3,29.76,ENE,68,1.6,1.6,76,0.00,,---,0.00,VWS V14.01,2013-01-10 10:46:00,
2013-01-10 02:51:00,32.0,25.3,29.76,SSE,158,0.0,0.0,76,0.00,,---,0.00,VWS V14.01,2013-01-10 10:51:00,
2013-01-10 02:56:00,32.0,25.3,29.76,SW,225,1.3,1.3,76,0.00,,---,0.00,VWS V14.01,2013-01-10 10:56:00,
2013-01-10 03:01:00,32.0,25.3,29.76,SW,225,0.0,0.0,76,0.00,,---,0.00,VWS V14.01,2013-01-10 11:01:00,
2013-01-10 03:07:00,32.0,25.3,29.76,SW,225,2.2,2.2,76,0.00,,---,0.00,VWS V14.01,2013-01-10 11:07:00,
2013-01-10 03:12:00,31.8,25.1,29.76,WSW,248,1.6,1.6,76,0.00,,---,0.00,VWS V14.01,2013-01-10 11:12:00,
2013-01-10 03:17:00,31.6,25.0,29.76,SSE,158,0.0,0.0,76,0.00,,---,0.00,VWS V14.01,2013-01-10 11:17:00,
2013-01-10 03:22:00,31.3,24.6,29.76,NNW,338,2.0,2.0,76,0.00,,---,0.00,VWS V14.01,2013-01-10 11:22:00,
2013-01-10 03:27:00,31.3,24.9,29.76,ESE,112,0.0,0.0,77,0.00,,---,0.00,VWS V14.01,2013-01-10 11:27:00,
2013-01-10 03:32:00,31.1,24.8,29.76,NNW,338,0.0,0.0,77,0.00,,---,0.00,VWS V14.01,2013-01-10 11:32:00,
2013-01-10 03:37:00,30.7,24.4,29.76,ESE,112,2.0,2.0,77,0.00,,---,0.00,VWS V14.01,2013-01-10 11:37:00,
2013-01-10 03:42:00,30.6,24.2,29.76,SSE,158,2.5,2.5,77,0.00,,---,0.00,VWS V14.01,2013-01-10 11:42:00,
2013-01-10 03:47:00,30.4,24.0,29.76,WSW,248,0.0,0.0,77,0.00,,---,0.00,VWS V14.01,2013-01-10 11:47:00,
2013-01-10 03:52:00,30.2,23.9,29.76,WSW,248,3.4,3.4,77,0.00,,---,0.00,VWS V14.01,2013-01-10 11:52:00,
2013-01-10 03:57:00,30.4,24.4,29.76,South,180,0.9,0.9,78,0.00,,---,0.00,VWS V14.01,2013-01-10 11:57:00,
2013-01-10 04:02:00,30.2,24.2,29.76,West,270,0.0,0.0,78,0.00,,---,0.00,VWS V14.01,2013-01-10 12:02:00,
2013-01-10 04:07:00,30.0,24.0,29.76,SW,225,2.2,2.2,78,0.00,,---,0.00,VWS V14.01,2013-01-10 12:07:00,
2013-01-10 04:12:00,30.0,24.0,29.76,SSW,202,1.1,1.1,78,0.00,,---,0.00,VWS V14.01,2013-01-10 12:12:00,
2013-01-10 04:17:00,30.2,24.5,29.76,SW,225,1.6,1.6,79,0.00,,---,0.00,VWS V14.01,2013-01-10 12:17:00,
2013-01-10 04:23:00,30.2,24.5,29.76,SSE,158,0.0,0.0,79,0.00,,---,0.00,VWS V14.01,2013-01-10 12:23:00,
2013-01-10 04:28:00,30.2,24.5,29.76,NNW,338,0.0,0.0,79,0.00,,---,0.00,VWS V14.01,2013-01-10 12:28:00,
2013-01-10 04:33:00,30.2,24.5,29.76,West,270,0.0,0.0,79,0.00,,---,0.00,VWS V14.01,2013-01-10 12:33:00,
2013-01-10 04:38:00,30.4,24.7,29.76,SW,225,0.0,0.0,79,0.00,,---,0.00,VWS V14.01,2013-01-10 12:38:00,
2013-01-10 04:43:00,30.6,24.8,29.76,WSW,248,1.3,1.3,79,0.00,,---,0.00,VWS V14.01,2013-01-10 12:43:00,
2013-01-10 04:48:00,30.2,24.2,29.74,WSW,248,0.0,0.0,78,0.00,,---,0.00,VWS V14.01,2013-01-10 12:48:00,
2013-01-10 04:53:00,30.2,24.2,29.74,SSW,202,1.3,1.3,78,0.00,,---,0.00,VWS V14.01,2013-01-10 12:53:00,
2013-01-10 04:58:00,30.0,24.0,29.74,SSE,158,0.0,0.0,78,0.00,,---,0.00,VWS V14.01,2013-01-10 12:58:00,
2013-01-10 05:03:00,29.3,23.0,29.74,SSE,158,0.0,0.0,77,0.00,,---,0.00,VWS V14.01,2013-01-10 13:03:00,
2013-01-10 05:08:00,29.3,23.0,29.74,SW,225,0.0,0.0,77,0.00,,---,0.00,VWS V14.01,2013-01-10 13:08:00,
2013-01-10 05:14:00,28.9,22.6,29.74,South,180,1.6,1.6,77,0.00,,---,0.00,VWS V14.01,2013-01-10 13:14:00,
2013-01-10 05:19:00,28.8,22.5,29.74,SSE,158,0.0,0.0,77,0.00,,---,0.00,VWS V14.01,2013-01-10 13:19:00,
2013-01-10 05:24:00,28.6,22.6,29.74,SW,225,0.0,0.0,78,0.00,,---,0.00,VWS V14.01,2013-01-10 13:24:00,
2013-01-10 05:29:00,28.6,22.6,29.74,SW,225,0.0,0.0,78,0.00,,---,0.00,VWS V14.01,2013-01-10 13:29:00,
2013-01-10 05:34:00,28.0,22.1,29.74,SW,225,0.0,0.0,78,0.00,,---,0.00,VWS V14.01,2013-01-10 13:34:00,
2013-01-10 05:39:00,28.2,22.6,29.74,SSE,158,2.0,2.0,79,0.00,,---,0.00,VWS V14.01,2013-01-10 13:39:00,
2013-01-10 05:44:00,28.6,23.2,29.74,SSE,158,0.0,0.0,80,0.00,,---,0.00,VWS V14.01,2013-01-10 13:44:00,
2013-01-10 05:49:00,28.4,23.0,29.76,ENE,68,1.3,1.3,80,0.00,,---,0.00,VWS V14.01,2013-01-10 13:49:00,
2013-01-10 05:54:00,28.6,23.2,29.76,NE,45,0.0,0.0,80,0.00,,---,0.00,VWS V14.01,2013-01-10 13:54:00,
2013-01-10 05:59:00,28.6,22.9,29.76,North,0,0.0,0.0,79,0.00,,---,0.00,VWS V14.01,2013-01-10 13:59:00,
2013-01-10 06:04:00,28.4,22.7,29.76,North,0,0.0,0.0,79,0.00,,---,0.00,VWS V14.01,2013-01-10 14:04:00,
2013-01-10 06:09:00,28.2,22.6,29.76,West,270,1.6,1.6,79,0.00,,---,0.00,VWS V14.01,2013-01-10 14:09:00,
2013-01-10 06:15:00,28.6,22.9,29.76,West,270,1.1,1.1,79,0.00,,---,0.00,VWS V14.01,2013-01-10 14:15:00,
2013-01-10 06:20:00,28.8,23.1,29.76,NE,45,2.0,2.0,79,0.00,,---,0.00,VWS V14.01,2013-01-10 14:20:00,
2013-01-10 06:25:00,28.8,22.8,29.76,ENE,68,3.4,3.4,78,0.00,,---,0.00,VWS V14.01,2013-01-10 14:25:00,
2013-01-10 06:30:00,28.9,23.0,29.76,SSE,158,3.1,3.1,78,0.00,,---,0.00,VWS V14.01,2013-01-10 14:30:00,
2013-01-10 06:35:00,28.9,22.6,29.76,SSE,158,0.0,0.0,77,0.00,,---,0.00,VWS V14.01,2013-01-10 14:35:00,
2013-01-10 06:40:00,28.6,22.3,29.76,SSE,158,0.0,0.0,77,0.00,,---,0.00,VWS V14.01,2013-01-10 14:40:00,
2013-01-10 06:45:00,28.6,22.3,29.76,SSE,158,2.5,2.5,77,0.00,,---,0.00,VWS V14.01,2013-01-10 14:45:00,
2013-01-10 06:50:00,28.6,22.6,29.76,South,180,0.0,0.0,78,0.00,,---,0.00,VWS V14.01,2013-01-10 14:50:00,
2013-01-10 06:55:00,28.6,22.3,29.76,SE,135,2.9,2.9,77,0.00,,---,0.00,VWS V14.01,2013-01-10 14:55:00,
2013-01-10 07:00:00,28.8,22.5,29.76,SSE,158,2.7,2.7,77,0.00,,---,0.00,VWS V14.01,2013-01-10 15:00:00,
2013-01-10 07:05:00,28.8,22.5,29.76,SE,135,5.4,5.4,77,0.00,,---,0.00,VWS V14.01,2013-01-10 15:05:00,
2013-01-10 07:10:00,28.8,22.2,29.76,East,90,2.0,2.0,76,0.00,,---,0.00,VWS V14.01,2013-01-10 15:10:00,
2013-01-10 07:16:00,28.6,22.0,29.76,ENE,68,3.1,3.1,76,0.00,,---,0.00,VWS V14.01,2013-01-10 15:16:00,
2013-01-10 07:21:00,28.6,22.0,29.76,NNE,22,1.6,1.6,76,0.00,,---,0.00,VWS V14.01,2013-01-10 15:21:00,
2013-01-10 07:26:00,28.6,22.0,29.76,ENE,68,2.5,2.5,76,0.00,,---,0.00,VWS V14.01,2013-01-10 15:26:00,
2013-01-10 07:31:00,28.6,22.0,29.76,NE,45,2.7,2.7,76,0.00,,---,0.00,VWS V14.01,2013-01-10 15:31:00,
2013-01-10 07:36:00,28.8,22.2,29.76,ESE,112,1.3,1.3,76,0.00,,---,0.00,VWS V14.01,2013-01-10 15:36:00,
2013-01-10 07:41:00,28.8,22.2,29.76,NE,45,1.6,1.6,76,0.00,,---,0.00,VWS V14.01,2013-01-10 15:41:00,
2013-01-10 07:46:00,28.6,22.0,29.76,North,0,0.0,0.0,76,0.00,,---,0.00,VWS V14.01,2013-01-10 15:46:00,
2013-01-10 07:51:00,28.6,22.0,94.49,NW,315,1.6,1.6,76,0.00,,---,0.00,VWS V14.01,2013-01-10 15:51:00,
2013-01-10 07:56:00,28.6,22.0,29.76,NW,315,1.6,1.6,76,0.00,,---,0.00,VWS V14.01,2013-01-10 15:56:00,
2013-01-10 08:01:00,28.9,22.6,29.76,NW,315,2.0,2.0,77,0.00,,---,0.00,VWS V14.01,2013-01-10 16:01:00,
2013-01-10 08:07:00,28.9,22.3,29.76,NNW,338,0.0,0.0,76,0.00,,---,0.00,VWS V14.01,2013-01-10 16:07:00,
2013-01-10 08:12:00,29.1,22.5,29.76,WNW,292,2.0,2.0,76,0.00,,---,0.00,VWS V14.01,2013-01-10 16:12:00,
2013-01-10 08:17:00,29.1,22.5,29.76,WNW,292,2.9,2.9,76,0.00,,---,0.00,VWS V14.01,2013-01-10 16:17:00,
2013-01-10 08:22:00,29.3,22.4,29.79,North,0,2.9,2.9,75,0.00,,---,0.00,VWS V14.01,2013-01-10 16:22:00,
2013-01-10 08:27:00,29.3,22.4,29.79,WNW,292,1.1,1.1,75,0.00,,---,0.00,VWS V14.01,2013-01-10 16:27:00,
2013-01-10 08:32:00,29.5,22.5,29.79,West,270,2.9,2.9,75,0.00,,---,0.00,VWS V14.01,2013-01-10 16:32:00,
2013-01-10 08:37:00,29.5,22.5,29.76,WSW,248,2.2,2.2,75,0.00,,---,0.00,VWS V14.01,2013-01-10 16:37:00,
2013-01-10 08:42:00,29.7,22.7,29.76,WSW,248,0.0,0.0,75,0.00,,---,0.00,VWS V14.01,2013-01-10 16:42:00,
2013-01-10 08:47:00,30.0,23.1,29.76,SW,225,0.0,0.0,75,0.00,,---,0.00,VWS V14.01,2013-01-10 16:47:00,
2013-01-10 08:52:00,30.2,23.2,29.76,South,180,2.5,2.5,75,0.00,,---,0.00,VWS V14.01,2013-01-10 16:52:00,
2013-01-10 08:57:00,30.2,23.2,29.76,WSW,248,0.0,0.0,75,0.00,,---,0.00,VWS V14.01,2013-01-10 16:57:00,
2013-01-10 09:02:00,30.6,23.3,29.76,WSW,248,2.0,2.0,74,0.00,,---,0.00,VWS V14.01,2013-01-10 17:02:00,
2013-01-10 09:07:00,30.6,23.0,29.76,WSW,248,3.1,3.1,73,0.00,,---,0.00,VWS V14.01,2013-01-10 17:07:00,
2013-01-10 09:13:00,30.6,22.3,29.76,WSW,248,2.7,2.7,71,0.00,,---,0.00,VWS V14.01,2013-01-10 17:13:00,
2013-01-10 09:18:00,30.7,22.1,29.76,South,180,2.5,2.5,70,0.00,,---,0.00,VWS V14.01,2013-01-10 17:18:00,
2013-01-10 09:23:00,30.9,22.6,29.76,WSW,248,1.6,1.6,71,0.00,,---,0.00,VWS V14.01,2013-01-10 17:23:00,
2013-01-10 09:28:00,31.1,22.8,29.76,SW,225,2.5,2.5,71,0.00,,---,0.00,VWS V14.01,2013-01-10 17:28:00,
2013-01-10 09:33:00,31.1,22.5,29.76,WSW,248,0.9,0.9,70,0.00,,---,0.00,VWS V14.01,2013-01-10 17:33:00,
2013-01-10 09:38:00,31.5,23.2,29.76,South,180,2.2,2.2,71,0.00,,---,0.00,VWS V14.01,2013-01-10 17:38:00,
2013-01-10 09:43:00,31.6,23.0,29.76,WSW,248,2.5,2.5,70,0.00,,---,0.00,VWS V14.01,2013-01-10 17:43:00,
2013-01-10 09:48:00,31.6,22.0,29.76,SW,225,2.9,2.9,67,0.00,,---,0.00,VWS V14.01,2013-01-10 17:48:00,
2013-01-10 09:53:00,31.8,22.1,29.76,WSW,248,1.6,1.6,67,0.00,,---,0.00,VWS V14.01,2013-01-10 17:53:00,
2013-01-10 09:58:00,31.8,22.1,29.76,WNW,292,2.2,2.2,67,0.00,,---,0.00,VWS V14.01,2013-01-10 17:58:00,
2013-01-10 10:03:00,32.0,22.3,29.74,WNW,292,2.5,2.5,67,0.00,,---,0.00,VWS V14.01,2013-01-10 18:03:00,
2013-01-10 10:08:00,32.0,21.9,29.74,West,270,3.6,3.6,66,0.00,,---,0.00,VWS V14.01,2013-01-10 18:08:00,
2013-01-10 10:13:00,32.0,21.9,29.74,West,270,1.1,1.1,66,0.00,,---,0.00,VWS V14.01,2013-01-10 18:13:00,
2013-01-10 10:19:00,31.8,21.8,29.76,WSW,248,4.3,4.3,66,0.00,,---,0.00,VWS V14.01,2013-01-10 18:19:00,
2013-01-10 10:24:00,31.8,22.1,29.76,West,270,1.1,1.1,67,0.00,,---,0.00,VWS V14.01,2013-01-10 18:24:00,
2013-01-10 10:29:00,31.6,22.0,29.76,NW,315,2.5,2.5,67,0.00,,---,0.00,VWS V14.01,2013-01-10 18:29:00,
2013-01-10 10:34:00,31.6,22.3,29.76,SW,225,2.7,2.7,68,0.00,,---,0.00,VWS V14.01,2013-01-10 18:34:00,
2013-01-10 10:39:00,31.8,22.5,29.76,WSW,248,2.0,2.0,68,0.00,,---,0.00,VWS V14.01,2013-01-10 18:39:00,
2013-01-10 10:44:00,32.0,23.0,29.76,WNW,292,0.9,0.9,69,0.00,,---,0.00,VWS V14.01,2013-01-10 18:44:00,
2013-01-10 10:49:00,32.2,23.2,29.76,North,0,2.5,2.5,69,0.00,,---,0.00,VWS V14.01,2013-01-10 18:49:00,
2013-01-10 10:54:00,32.2,22.8,29.76,WNW,292,3.1,3.1,68,0.00,,---,0.00,VWS V14.01,2013-01-10 18:54:00,
2013-01-10 10:59:00,32.2,22.8,29.76,NW,315,3.4,3.4,68,0.00,,---,0.00,VWS V14.01,2013-01-10 18:59:00,
2013-01-10 11:04:00,32.2,22.8,29.76,WSW,248,1.6,1.6,68,0.00,,---,0.00,VWS V14.01,2013-01-10 19:04:00,
2013-01-10 11:09:00,32.2,22.8,29.76,NW,315,0.0,0.0,68,0.00,,---,0.00,VWS V14.01,2013-01-10 19:09:00,
2013-01-10 11:15:00,32.4,23.0,29.76,NNE,22,0.9,0.9,68,0.00,,---,0.00,VWS V14.01,2013-01-10 19:15:00,
2013-01-10 11:20:00,32.5,23.2,29.79,NW,315,0.0,0.0,68,0.00,,---,0.00,VWS V14.01,2013-01-10 19:20:00,
2013-01-10 11:25:00,32.5,23.2,29.79,WSW,248,0.0,0.0,68,0.00,,---,0.00,VWS V14.01,2013-01-10 19:25:00,
2013-01-10 11:30:00,32.5,23.2,29.79,East,90,0.0,0.0,68,0.00,,---,0.00,VWS V14.01,2013-01-10 19:30:00,
2013-01-10 11:35:00,32.4,22.6,29.76,WNW,292,2.2,2.2,67,0.00,,---,0.00,VWS V14.01,2013-01-10 19:35:00,
2013-01-10 11:40:00,32.4,22.3,29.76,West,270,4.3,4.3,66,0.00,,---,0.00,VWS V14.01,2013-01-10 19:40:00,
2013-01-10 11:45:00,32.4,22.6,29.76,West,270,4.3,4.3,67,0.00,,---,0.00,VWS V14.01,2013-01-10 19:45:00,
2013-01-10 11:51:00,32.2,22.5,29.76,WSW,248,1.3,1.3,67,0.00,,---,0.00,VWS V14.01,2013-01-10 19:51:00,
2013-01-10 11:56:00,32.0,22.3,29.76,SSW,202,3.6,3.6,67,0.00,,---,0.00,VWS V14.01,2013-01-10 19:56:00,
2013-01-10 12:01:00,31.8,22.5,29.76,WSW,248,2.5,2.5,68,0.00,,---,0.00,VWS V14.01,2013-01-10 20:01:00,
2013-01-10 12:06:00,31.8,22.8,29.76,SW,225,3.1,3.1,69,0.00,,---,0.00,VWS V14.01,2013-01-10 20:06:00,
2013-01-10 12:11:00,31.8,23.2,29.76,WSW,248,3.1,3.1,70,0.00,,---,0.00,VWS V14.01,2013-01-10 20:11:00,
2013-01-10 12:16:00,31.6,23.3,29.76,WNW,292,6.5,6.5,71,0.00,,---,0.00,VWS V14.01,2013-01-10 20:16:00,
2013-01-10 12:21:00,31.8,23.5,29.76,WSW,248,0.0,0.0,71,0.00,,---,0.00,VWS V14.01,2013-01-10 20:21:00,
2013-01-10 12:26:00,32.0,23.7,29.76,NW,315,0.0,0.0,71,0.00,,---,0.00,VWS V14.01,2013-01-10 20:26:00,
2013-01-10 12:31:00,32.0,24.0,29.76,WSW,248,0.0,0.0,72,0.00,,---,0.00,VWS V14.01,2013-01-10 20:31:00,
2013-01-10 12:36:00,32.0,24.0,29.74,NW,315,0.0,0.0,72,0.00,,---,0.00,VWS V14.01,2013-01-10 20:36:00,
2013-01-10 12:41:00,32.2,24.2,29.74,WSW,248,1.3,1.3,72,0.00,,---,0.00,VWS V14.01,2013-01-10 20:41:00,
2013-01-10 12:46:00,32.5,24.5,29.74,West,270,2.0,2.0,72,0.00,,---,0.00,VWS V14.01,2013-01-10 20:46:00,
2013-01-10 12:51:00,32.5,24.5,29.76,West,270,2.5,2.5,72,0.00,,---,0.00,VWS V14.01,2013-01-10 20:51:00,
2013-01-10 12:56:00,32.5,24.5,29.76,WNW,292,2.7,2.7,72,0.00,,---,0.00,VWS V14.01,2013-01-10 20:56:00,
2013-01-10 13:01:00,32.5,24.5,29.76,West,270,4.0,4.0,72,0.00,,---,0.00,VWS V14.01,2013-01-10 21:01:00,
2013-01-10 13:06:00,32.5,23.9,29.76,West,270,2.9,2.9,70,0.00,,---,0.00,VWS V14.01,2013-01-10 21:06:00,
2013-01-10 13:12:00,32.7,24.4,29.76,WSW,248,3.8,3.8,71,0.00,,---,0.00,VWS V14.01,2013-01-10 21:12:00,
2013-01-10 13:17:00,32.7,24.4,29.76,NW,315,2.0,2.0,71,0.00,,---,0.00,VWS V14.01,2013-01-10 21:17:00,
2013-01-10 13:22:00,32.9,24.5,29.76,WNW,292,5.4,5.4,71,0.00,,---,0.00,VWS V14.01,2013-01-10 21:22:00,
2013-01-10 13:27:00,32.9,24.2,29.76,NW,315,1.3,1.3,70,0.00,,---,0.00,VWS V14.01,2013-01-10 21:27:00,
2013-01-10 13:32:00,33.1,24.7,29.76,NNW,338,1.6,1.6,71,0.00,,---,0.00,VWS V14.01,2013-01-10 21:32:00,
2013-01-10 13:37:00,33.3,24.9,29.76,West,270,1.1,1.1,71,0.00,,---,0.00,VWS V14.01,2013-01-10 21:37:00,
2013-01-10 13:42:00,33.3,24.5,29.76,WNW,292,3.1,3.1,70,0.00,,---,0.00,VWS V14.01,2013-01-10 21:42:00,
2013-01-10 13:47:00,33.3,23.9,29.76,WNW,292,2.2,2.2,68,0.00,,---,0.00,VWS V14.01,2013-01-10 21:47:00,
2013-01-10 13:52:00,33.1,23.3,29.76,WNW,292,2.7,2.7,67,0.00,,---,0.00,VWS V14.01,2013-01-10 21:52:00,
2013-01-10 13:57:00,33.1,23.3,29.76,WNW,292,3.4,3.4,67,0.00,,---,0.00,VWS V14.01,2013-01-10 21:57:00,
2013-01-10 14:02:00,32.9,23.5,29.76,WSW,248,0.0,0.0,68,0.00,,---,0.00,VWS V14.01,2013-01-10 22:02:00,
2013-01-10 14:07:00,32.9,23.5,29.76,West,270,2.2,2.2,68,0.00,,---,0.00,VWS V14.01,2013-01-10 22:07:00,
2013-01-10 14:12:00,32.7,23.3,29.76,WSW,248,2.7,2.7,68,0.00,,---,0.00,VWS V14.01,2013-01-10 22:12:00,
2013-01-10 14:17:00,32.5,22.8,29.76,WSW,248,4.0,4.0,67,0.00,,---,0.00,VWS V14.01,2013-01-10 22:17:00,
2013-01-10 14:22:00,32.5,22.8,29.76,WSW,248,2.7,2.7,67,0.00,,---,0.00,VWS V14.01,2013-01-10 22:22:00,
2013-01-10 14:27:00,32.7,23.0,29.76,West,270,1.3,1.3,67,0.00,,---,0.00,VWS V14.01,2013-01-10 22:27:00,
2013-01-10 14:33:00,32.7,23.0,29.76,West,270,1.3,1.3,67,0.00,,---,0.00,VWS V14.01,2013-01-10 22:33:00,
2013-01-10 14:38:00,32.7,23.3,29.76,WSW,248,2.0,2.0,68,0.00,,---,0.00,VWS V14.01,2013-01-10 22:38:00,
2013-01-10 14:43:00,32.7,23.3,29.76,WNW,292,1.3,1.3,68,0.00,,---,0.00,VWS V14.01,2013-01-10 22:43:00,
2013-01-10 14:48:00,32.7,23.0,29.74,NW,315,0.0,0.0,67,0.00,,---,0.00,VWS V14.01,2013-01-10 22:48:00,
2013-01-10 14:53:00,32.7,23.0,29.74,WNW,292,1.6,1.6,67,0.00,,---,0.00,VWS V14.01,2013-01-10 22:53:00,
2013-01-10 14:58:00,32.7,23.0,29.74,West,270,0.0,0.0,67,0.00,,---,0.00,VWS V14.01,2013-01-10 22:58:00,
2013-01-10 15:03:00,32.7,23.0,29.76,WSW,248,1.6,1.6,67,0.00,,---,0.00,VWS V14.01,2013-01-10 23:03:00,
2013-01-10 15:08:00,32.7,23.0,29.76,WSW,248,0.9,0.9,67,0.00,,---,0.00,VWS V14.01,2013-01-10 23:08:00,
2013-01-10 15:14:00,32.7,23.0,29.76,SSE,158,0.0,0.0,67,0.00,,---,0.00,VWS V14.01,2013-01-10 23:14:00,
2013-01-10 15:19:00,32.5,23.2,29.76,West,270,1.6,1.6,68,0.00,,---,0.00,VWS V14.01,2013-01-10 23:19:00,
2013-01-10 15:24:00,32.5,23.2,29.76,WSW,248,2.0,2.0,68,0.00,,---,0.00,VWS V14.01,2013-01-10 23:24:00,
2013-01-10 15:29:00,32.5,23.2,29.76,WSW,248,0.0,0.0,68,0.00,,---,0.00,VWS V14.01,2013-01-10 23:29:00,
2013-01-10 15:34:00,32.5,23.2,29.76,West,270,1.3,1.3,68,0.00,,---,0.00,VWS V14.01,2013-01-10 23:34:00,
2013-01-10 15:39:00,32.4,23.0,29.76,West,270,0.0,0.0,68,0.00,,---,0.00,VWS V14.01,2013-01-10 23:39:00,
2013-01-10 15:44:00,32.4,23.0,29.76,West,270,2.7,2.7,68,0.00,,---,0.00,VWS V14.01,2013-01-10 23:44:00,
2013-01-10 15:49:00,32.4,23.0,29.76,WSW,248,2.0,2.0,68,0.00,,---,0.00,VWS V14.01,2013-01-10 23:49:00,
2013-01-10 15:54:00,32.2,22.8,29.76,WNW,292,2.0,2.0,68,0.00,,---,0.00,VWS V14.01,2013-01-10 23:54:00,
2013-01-10 15:59:00,32.2,23.2,29.76,WSW,248,0.0,0.0,69,0.00,,---,0.00,VWS V14.01,2013-01-10 23:59:00,
2013-01-10 16:04:00,32.2,23.2,29.76,West,270,1.6,1.6,69,0.00,,---,0.00,VWS V14.01,2013-01-11 00:04:00,
2013-01-10 16:09:00,32.2,23.2,29.76,WSW,248,2.0,2.0,69,0.00,,---,0.00,VWS V14.01,2013-01-11 00:09:00,
2013-01-10 16:14:00,32.2,23.5,29.76,WSW,248,2.5,2.5,70,0.00,,---,0.00,VWS V14.01,2013-01-11 00:14:00,
2013-01-10 16:20:00,32.2,23.5,29.76,SW,225,2.7,2.7,70,0.00,,---,0.00,VWS V14.01,2013-01-11 00:20:00,
2013-01-10 16:25:00,32.0,23.3,29.76,West,270,0.0,0.0,70,0.00,,---,0.00,VWS V14.01,2013-01-11 00:25:00,
2013-01-10 16:30:00,32.0,23.3,29.76,WSW,248,2.0,2.0,70,0.00,,---,0.00,VWS V14.01,2013-01-11 00:30:00,
2013-01-10 16:35:00,32.0,23.0,29.76,West,270,2.5,2.5,69,0.00,,---,0.00,VWS V14.01,2013-01-11 00:35:00,
2013-01-10 16:40:00,32.2,22.8,29.76,WSW,248,1.6,1.6,68,0.00,,---,0.00,VWS V14.01,2013-01-11 00:40:00,
2013-01-10 16:45:00,32.2,22.8,29.76,WNW,292,2.5,2.5,68,0.00,,---,0.00,VWS V14.01,2013-01-11 00:45:00,
2013-01-10 16:50:00,32.2,22.8,29.76,West,270,1.6,1.6,68,0.00,,---,0.00,VWS V14.01,2013-01-11 00:50:00,
2013-01-10 16:55:00,32.2,22.1,29.76,NW,315,2.9,2.9,66,0.00,,---,0.00,VWS V14.01,2013-01-11 00:55:00,
2013-01-10 17:00:00,32.4,21.6,29.76,WNW,292,3.8,3.8,64,0.00,,---,0.00,VWS V14.01,2013-01-11 01:00:00,
2013-01-10 17:05:00,32.5,22.1,29.76,WNW,292,0.0,0.0,65,0.00,,---,0.00,VWS V14.01,2013-01-11 01:05:00,
2013-01-10 17:10:00,32.5,21.4,29.76,NW,315,2.0,2.0,63,0.00,,---,0.00,VWS V14.01,2013-01-11 01:10:00,
2013-01-10 17:15:00,32.4,21.6,29.76,NNW,338,2.5,2.5,64,0.00,,---,0.00,VWS V14.01,2013-01-11 01:15:00,
2013-01-10 17:20:00,32.2,21.8,29.76,West,270,6.5,6.5,65,0.00,,---,0.00,VWS V14.01,2013-01-11 01:20:00,
2013-01-10 17:25:00,32.0,21.6,29.76,NNW,338,2.9,2.9,65,0.00,,---,0.00,VWS V14.01,2013-01-11 01:25:00,
2013-01-10 17:30:00,31.5,22.5,29.76,NNW,338,2.7,2.7,69,0.00,,---,0.00,VWS V14.01,2013-01-11 01:30:00,
2013-01-10 17:35:00,31.1,22.1,29.76,West,270,3.1,3.1,69,0.00,,---,0.00,VWS V14.01,2013-01-11 01:35:00,
2013-01-10 17:40:00,30.9,22.6,29.76,NW,315,2.0,2.0,71,0.00,,---,0.00,VWS V14.01,2013-01-11 01:40:00,
2013-01-10 17:45:00,30.7,22.8,29.76,WNW,292,2.5,2.5,72,0.00,,---,0.00,VWS V14.01,2013-01-11 01:45:00,
2013-01-10 17:50:00,30.4,22.8,29.76,WNW,292,1.3,1.3,73,0.00,,---,0.00,VWS V14.01,2013-01-11 01:50:00,
2013-01-10 17:56:00,30.2,23.6,29.76,NNW,338,3.6,3.6,76,0.00,,---,0.00,VWS V14.01,2013-01-11 01:56:00,
2013-01-10 18:01:00,30.0,23.7,29.76,WNW,292,2.0,2.0,77,0.00,,---,0.00,VWS V14.01,2013-01-11 02:01:00,
2013-01-10 18:06:00,29.8,24.1,29.79,WNW,292,4.5,4.5,79,0.00,,---,0.00,VWS V14.01,2013-01-11 02:06:00,
2013-01-10 18:11:00,29.5,24.4,29.79,NW,315,4.7,4.7,81,0.00,,---,0.00,VWS V14.01,2013-01-11 02:11:00,
2013-01-10 18:16:00,29.3,25.1,29.79,WNW,292,5.6,5.6,84,0.00,,---,0.00,VWS V14.01,2013-01-11 02:16:00,
2013-01-10 18:21:00,29.1,25.2,29.79,WNW,292,3.4,3.4,85,0.00,,---,0.00,VWS V14.01,2013-01-11 02:21:00,
2013-01-10 18:26:00,28.9,25.0,29.79,NW,315,6.0,6.0,85,0.00,,---,0.00,VWS V14.01,2013-01-11 02:26:00,
2013-01-10 18:31:00,28.8,25.1,29.79,NNW,338,2.9,2.9,86,0.00,,---,0.00,VWS V14.01,2013-01-11 02:31:00,
2013-01-10 18:36:00,28.8,25.4,29.79,WNW,292,4.0,4.0,87,0.00,,---,0.00,VWS V14.01,2013-01-11 02:36:00,
2013-01-10 18:41:00,28.6,25.5,29.79,WNW,292,2.9,2.9,88,0.00,,---,0.00,VWS V14.01,2013-01-11 02:41:00,
2013-01-10 18:46:00,28.6,25.5,29.79,WNW,292,2.9,2.9,88,0.00,,---,0.00,VWS V14.01,2013-01-11 02:46:00,
2013-01-10 18:52:00,28.6,25.8,29.79,West,270,2.9,2.9,89,0.00,,---,0.00,VWS V14.01,2013-01-11 02:52:00,
2013-01-10 18:57:00,28.6,25.8,29.79,NW,315,1.6,1.6,89,0.00,,---,0.00,VWS V14.01,2013-01-11 02:57:00,
2013-01-10 19:02:00,28.6,25.8,29.79,NNW,338,3.6,3.6,89,0.00,,---,0.00,VWS V14.01,2013-01-11 03:02:00,
2013-01-10 19:07:00,28.6,25.8,29.79,WSW,248,1.1,1.1,89,0.00,,---,0.00,VWS V14.01,2013-01-11 03:07:00,
2013-01-10 19:12:00,28.6,25.8,29.79,West,270,0.0,0.0,89,0.00,,---,0.00,VWS V14.01,2013-01-11 03:12:00,
2013-01-10 19:17:00,28.6,25.8,29.79,West,270,2.7,2.7,89,0.00,,---,0.00,VWS V14.01,2013-01-11 03:17:00,
2013-01-10 19:22:00,28.6,25.8,29.79,West,270,3.4,3.4,89,0.00,,---,0.00,VWS V14.01,2013-01-11 03:22:00,
2013-01-10 19:27:00,28.6,25.8,29.79,NW,315,5.4,5.4,89,0.00,,---,0.00,VWS V14.01,2013-01-11 03:27:00,
2013-01-10 19:32:00,28.4,25.6,29.82,West,270,0.9,0.9,89,0.00,,---,0.00,VWS V14.01,2013-01-11 03:32:00,
2013-01-10 19:37:00,28.4,25.6,29.82,NNW,338,2.7,2.7,89,0.00,,---,0.00,VWS V14.01,2013-01-11 03:37:00,
2013-01-10 19:42:00,28.4,25.6,29.82,WNW,292,0.0,0.0,89,0.00,,---,0.00,VWS V14.01,2013-01-11 03:42:00,
2013-01-10 19:47:00,28.4,25.6,29.79,NW,315,1.6,1.6,89,0.00,,---,0.00,VWS V14.01,2013-01-11 03:47:00,
2013-01-10 19:53:00,28.4,25.6,29.79,WNW,292,2.5,2.5,89,0.00,,---,0.00,VWS V14.01,2013-01-11 03:53:00,
2013-01-10 19:58:00,28.4,25.6,29.79,WSW,248,2.7,2.7,89,0.00,,---,0.00,VWS V14.01,2013-01-11 03:58:00,
2013-01-10 20:03:00,28.2,25.4,29.79,WNW,292,1.6,1.6,89,0.00,,---,0.00,VWS V14.01,2013-01-11 04:03:00,
2013-01-10 20:08:00,28.2,25.4,29.79,WNW,292,1.6,1.6,89,0.00,,---,0.00,VWS V14.01,2013-01-11 04:08:00,
2013-01-10 20:13:00,28.2,25.4,29.79,West,270,2.0,2.0,89,0.00,,---,0.00,VWS V14.01,2013-01-11 04:13:00,
2013-01-10 20:18:00,28.2,25.4,29.82,WNW,292,1.3,1.3,89,0.00,,---,0.00,VWS V14.01,2013-01-11 04:18:00,
2013-01-10 20:23:00,28.2,25.1,29.82,WNW,292,1.3,1.3,88,0.00,,---,0.00,VWS V14.01,2013-01-11 04:23:00,
2013-01-10 20:28:00,28.0,25.0,29.82,NW,315,2.2,2.2,88,0.00,,---,0.00,VWS V14.01,2013-01-11 04:28:00,
2013-01-10 20:33:00,28.0,25.0,29.82,NNW,338,0.0,0.0,88,0.00,,---,0.00,VWS V14.01,2013-01-11 04:33:00,
2013-01-10 20:38:00,28.0,25.0,29.82,WNW,292,2.2,2.2,88,0.00,,---,0.00,VWS V14.01,2013-01-11 04:38:00,
2013-01-10 20:43:00,28.0,25.0,29.82,NW,315,0.0,0.0,88,0.00,,---,0.00,VWS V14.01,2013-01-11 04:43:00,
2013-01-10 20:48:00,28.0,25.0,29.82,NNW,338,2.5,2.5,88,0.00,,---,0.00,VWS V14.01,2013-01-11 04:48:00,
2013-01-10 20:54:00,28.0,25.0,29.82,NNW,338,0.0,0.0,88,0.00,,---,0.00,VWS V14.01,2013-01-11 04:54:00,
2013-01-10 20:59:00,28.0,25.0,29.82,NNW,338,0.0,0.0,88,0.00,,---,0.00,VWS V14.01,2013-01-11 04:59:00,
2013-01-10 21:00:00,28.0,25.0,29.82,NW,315,2.7,2.7,88,0.00,,---,0.00,VWS V14.01,2013-01-11 05:00:00,
2013-01-10 21:01:00,28.0,25.0,29.82,NNW,338,1.3,1.3,88,0.00,,---,0.00,VWS V14.01,2013-01-11 05:01:00,
2013-01-10 21:03:00,27.9,24.8,29.85,North,0,1.3,1.3,88,0.00,,---,0.00,VWS V14.01,2013-01-11 05:03:00,
2013-01-10 21:08:00,27.9,24.8,29.85,WNW,292,2.9,2.9,88,0.00,,---,0.00,VWS V14.01,2013-01-11 05:08:00,
2013-01-10 21:14:00,27.9,24.5,29.85,NNE,22,0.0,0.0,87,0.00,,---,0.00,VWS V14.01,2013-01-11 05:14:00,
2013-01-10 21:19:00,27.7,24.3,29.82,NW,315,1.3,1.3,87,0.00,,---,0.00,VWS V14.01,2013-01-11 05:19:00,
2013-01-10 21:24:00,27.7,24.0,29.82,NW,315,3.8,3.8,86,0.00,,---,0.00,VWS V14.01,2013-01-11 05:24:00,
2013-01-10 21:29:00,27.5,23.9,29.82,WNW,292,2.7,2.7,86,0.00,,---,0.00,VWS V14.01,2013-01-11 05:29:00,
2013-01-10 21:34:00,27.5,23.9,29.82,NNW,338,2.0,2.0,86,0.00,,---,0.00,VWS V14.01,2013-01-11 05:34:00,
2013-01-10 21:39:00,27.3,23.7,29.82,NNW,338,2.7,2.7,86,0.00,,---,0.00,VWS V14.01,2013-01-11 05:39:00,
2013-01-10 21:44:00,27.3,23.7,29.82,NNW,338,0.0,0.0,86,0.00,,---,0.00,VWS V14.01,2013-01-11 05:44:00,
2013-01-10 21:49:00,27.3,23.7,29.79,NW,315,2.2,2.2,86,0.00,,---,0.00,VWS V14.01,2013-01-11 05:49:00,
2013-01-10 21:54:00,27.3,23.7,29.79,WNW,292,2.0,2.0,86,0.00,,---,0.00,VWS V14.01,2013-01-11 05:54:00,
2013-01-10 21:59:00,27.1,23.5,29.79,NW,315,2.0,2.0,86,0.00,,---,0.00,VWS V14.01,2013-01-11 05:59:00,
2013-01-10 22:04:00,27.1,23.5,29.82,WNW,292,2.2,2.2,86,0.00,,---,0.00,VWS V14.01,2013-01-11 06:04:00,
2013-01-10 22:09:00,27.1,23.5,29.82,WNW,292,1.3,1.3,86,0.00,,---,0.00,VWS V14.01,2013-01-11 06:09:00,
2013-01-10 22:14:00,27.1,23.5,29.82,WNW,292,0.0,0.0,86,0.00,,---,0.00,VWS V14.01,2013-01-11 06:14:00,
2013-01-10 22:19:00,27.1,23.5,29.79,WNW,292,0.0,0.0,86,0.00,,---,0.00,VWS V14.01,2013-01-11 06:19:00,
2013-01-10 22:25:00,27.0,23.3,29.79,WNW,292,1.1,1.1,86,0.00,,---,0.00,VWS V14.01,2013-01-11 06:25:00,
2013-01-10 22:30:00,27.0,23.3,29.79,WNW,292,1.1,1.1,86,0.00,,---,0.00,VWS V14.01,2013-01-11 06:30:00,
2013-01-10 22:35:00,27.0,23.3,29.82,WNW,292,0.0,0.0,86,0.00,,---,0.00,VWS V14.01,2013-01-11 06:35:00,
2013-01-10 22:40:00,27.0,23.3,29.82,WNW,292,1.3,1.3,86,0.00,,---,0.00,VWS V14.01,2013-01-11 06:40:00,
2013-01-10 22:45:00,27.0,23.3,29.82,WNW,292,1.6,1.6,86,0.00,,---,0.00,VWS V14.01,2013-01-11 06:45:00,
2013-01-10 22:50:00,27.0,23.6,29.82,WNW,292,0.0,0.0,87,0.00,,---,0.00,VWS V14.01,2013-01-11 06:50:00,
2013-01-10 22:55:00,27.0,23.6,29.82,WNW,292,0.0,0.0,87,0.00,,---,0.00,VWS V14.01,2013-01-11 06:55:00,
2013-01-10 23:00:00,27.0,23.6,29.82,WNW,292,1.6,1.6,87,0.00,,---,0.00,VWS V14.01,2013-01-11 07:00:00,
2013-01-10 23:05:00,27.0,23.6,29.85,WNW,292,2.5,2.5,87,0.00,,---,0.00,VWS V14.01,2013-01-11 07:05:00,
2013-01-10 23:10:00,27.0,23.6,29.85,WNW,292,0.0,0.0,87,0.00,,---,0.00,VWS V14.01,2013-01-11 07:10:00,
2013-01-10 23:15:00,27.0,23.6,29.85,WNW,292,2.0,2.0,87,0.00,,---,0.00,VWS V14.01,2013-01-11 07:15:00,
2013-01-10 23:20:00,27.0,23.6,29.85,WNW,292,0.0,0.0,87,0.00,,---,0.00,VWS V14.01,2013-01-11 07:20:00,
2013-01-10 23:26:00,27.0,23.6,29.85,WNW,292,0.0,0.0,87,0.00,,---,0.00,VWS V14.01,2013-01-11 07:26:00,
2013-01-10 23:31:00,27.0,23.6,29.85,WNW,292,0.0,0.0,87,0.00,,---,0.00,VWS V14.01,2013-01-11 07:31:00,
2013-01-10 23:36:00,27.0,23.6,29.85,WNW,292,0.0,0.0,87,0.00,,---,0.00,VWS V14.01,2013-01-11 07:36:00,
2013-01-10 23:41:00,27.0,23.6,29.85,WNW,292,0.0,0.0,87,0.00,,---,0.00,VWS V14.01,2013-01-11 07:41:00,
2013-01-10 23:46:00,27.0,23.6,29.85,WNW,292,0.0,0.0,87,0.00,,---,0.00,VWS V14.01,2013-01-11 07:46:00,
2013-01-10 23:51:00,27.0,23.6,29.85,WNW,292,0.0,0.0,87,0.00,,---,0.00,VWS V14.01,2013-01-11 07:51:00,
2013-01-10 23:56:00,27.0,23.6,29.85,WNW,292,0.0,0.0,87,0.00,,---,0.00,VWS V14.01,2013-01-11 07:56:00,